sensor_id;sensor_type;location;lat;lon;timestamp;P1;durP1;ratioP1;P2;durP2;ratioP2
67819;SDS011;54618;52.018;5.576;2022-09-21T00:00:21;7.10;;;2.83;;
67819;SDS011;54618;52.018;5.576;2022-09-21T00:02:48;6.32;;;2.38;;
67819;SDS011;54618;52.018;5.576;2022-09-21T00:05:14;5.72;;;2.88;;
67819;SDS011;54618;52.018;5.576;2022-09-21T00:07:39;5.40;;;2.90;;
67819;SDS011;54618;52.018;5.576;2022-09-21T00:10:05;5.80;;;2.85;;
67819;SDS011;54618;52.018;5.576;2022-09-21T00:12:31;4.60;;;3.05;;
67819;SDS011;54618;52.018;5.576;2022-09-21T00:14:57;3.25;;;1.80;;
67819;SDS011;54618;52.018;5.576;2022-09-21T00:17:22;3.30;;;2.15;;
67819;SDS011;54618;52.018;5.576;2022-09-21T00:19:48;4.20;;;2.13;;
67819;SDS011;54618;52.018;5.576;2022-09-21T00:22:13;5.80;;;2.80;;
67819;SDS011;54618;52.018;5.576;2022-09-21T00:24:39;5.70;;;2.60;;
67819;SDS011;54618;52.018;5.576;2022-09-21T00:27:04;5.05;;;2.60;;
67819;SDS011;54618;52.018;5.576;2022-09-21T00:29:31;4.70;;;2.50;;
67819;SDS011;54618;52.018;5.576;2022-09-21T00:31:56;6.10;;;2.60;;
67819;SDS011;54618;52.018;5.576;2022-09-21T00:34:22;5.05;;;2.60;;
67819;SDS011;54618;52.018;5.576;2022-09-21T00:36:48;4.88;;;2.25;;
67819;SDS011;54618;52.018;5.576;2022-09-21T00:39:14;3.78;;;2.22;;
67819;SDS011;54618;52.018;5.576;2022-09-21T00:41:39;4.20;;;2.45;;
67819;SDS011;54618;52.018;5.576;2022-09-21T00:46:39;5.15;;;2.15;;
67819;SDS011;54618;52.018;5.576;2022-09-21T00:49:06;4.72;;;2.50;;
67819;SDS011;54618;52.018;5.576;2022-09-21T00:51:33;4.43;;;2.60;;
67819;SDS011;54618;52.018;5.576;2022-09-21T00:54:00;4.18;;;2.20;;
67819;SDS011;54618;52.018;5.576;2022-09-21T00:56:30;4.18;;;2.58;;
67819;SDS011;54618;52.018;5.576;2022-09-21T00:58:56;5.15;;;2.35;;
67819;SDS011;54618;52.018;5.576;2022-09-21T01:01:22;4.97;;;2.67;;
67819;SDS011;54618;52.018;5.576;2022-09-21T01:03:49;3.42;;;2.22;;
67819;SDS011;54618;52.018;5.576;2022-09-21T01:06:17;3.92;;;2.33;;
67819;SDS011;54618;52.018;5.576;2022-09-21T01:08:44;5.22;;;2.45;;
67819;SDS011;54618;52.018;5.576;2022-09-21T01:19:25;4.57;;;2.20;;
67819;SDS011;54618;52.018;5.576;2022-09-21T01:22:28;5.88;;;2.17;;
67819;SDS011;54618;52.018;5.576;2022-09-21T01:25:08;4.40;;;2.35;;
67819;SDS011;54618;52.018;5.576;2022-09-21T01:30:53;5.03;;;2.30;;
67819;SDS011;54618;52.018;5.576;2022-09-21T01:33:28;4.18;;;1.92;;
67819;SDS011;54618;52.018;5.576;2022-09-21T01:36:00;5.40;;;2.30;;
67819;SDS011;54618;52.018;5.576;2022-09-21T01:38:40;4.38;;;2.05;;
67819;SDS011;54618;52.018;5.576;2022-09-21T01:41:09;3.53;;;1.90;;
67819;SDS011;54618;52.018;5.576;2022-09-21T01:43:39;3.47;;;2.10;;
67819;SDS011;54618;52.018;5.576;2022-09-21T01:46:10;5.10;;;2.25;;
67819;SDS011;54618;52.018;5.576;2022-09-21T01:51:08;5.45;;;1.85;;
67819;SDS011;54618;52.018;5.576;2022-09-21T01:53:38;3.60;;;1.92;;
67819;SDS011;54618;52.018;5.576;2022-09-21T01:56:10;4.60;;;2.00;;
67819;SDS011;54618;52.018;5.576;2022-09-21T01:58:46;3.60;;;2.00;;
67819;SDS011;54618;52.018;5.576;2022-09-21T02:01:23;3.85;;;2.05;;
67819;SDS011;54618;52.018;5.576;2022-09-21T02:03:54;4.20;;;1.90;;
67819;SDS011;54618;52.018;5.576;2022-09-21T02:06:24;3.97;;;2.10;;
67819;SDS011;54618;52.018;5.576;2022-09-21T02:08:51;3.72;;;1.80;;
67819;SDS011;54618;52.018;5.576;2022-09-21T02:11:17;4.03;;;1.80;;
67819;SDS011;54618;52.018;5.576;2022-09-21T02:13:44;3.30;;;1.80;;
67819;SDS011;54618;52.018;5.576;2022-09-21T02:24:56;3.45;;;1.50;;
67819;SDS011;54618;52.018;5.576;2022-09-21T02:27:40;3.00;;;1.80;;
67819;SDS011;54618;52.018;5.576;2022-09-21T02:30:25;4.07;;;1.73;;
67819;SDS011;54618;52.018;5.576;2022-09-21T02:38:34;3.40;;;1.70;;
67819;SDS011;54618;52.018;5.576;2022-09-21T02:43:46;3.25;;;1.75;;
67819;SDS011;54618;52.018;5.576;2022-09-21T02:48:56;2.95;;;1.70;;
67819;SDS011;54618;52.018;5.576;2022-09-21T02:51:27;3.13;;;1.55;;
67819;SDS011;54618;52.018;5.576;2022-09-21T02:54:00;3.25;;;1.60;;
67819;SDS011;54618;52.018;5.576;2022-09-21T02:56:29;2.60;;;1.75;;
67819;SDS011;54618;52.018;5.576;2022-09-21T02:58:56;3.53;;;1.42;;
67819;SDS011;54618;52.018;5.576;2022-09-21T03:01:25;3.35;;;1.85;;
67819;SDS011;54618;52.018;5.576;2022-09-21T03:03:52;3.50;;;1.70;;
67819;SDS011;54618;52.018;5.576;2022-09-21T03:06:18;3.17;;;1.40;;
67819;SDS011;54618;52.018;5.576;2022-09-21T03:08:43;4.07;;;1.60;;
67819;SDS011;54618;52.018;5.576;2022-09-21T03:11:09;3.22;;;1.40;;
67819;SDS011;54618;52.018;5.576;2022-09-21T03:13:35;2.58;;;1.33;;
67819;SDS011;54618;52.018;5.576;2022-09-21T03:16:02;5.07;;;1.73;;
67819;SDS011;54618;52.018;5.576;2022-09-21T03:18:29;3.05;;;1.60;;
67819;SDS011;54618;52.018;5.576;2022-09-21T03:20:56;2.33;;;1.40;;
67819;SDS011;54618;52.018;5.576;2022-09-21T03:23:21;3.78;;;1.58;;
67819;SDS011;54618;52.018;5.576;2022-09-21T03:25:47;2.00;;;1.45;;
67819;SDS011;54618;52.018;5.576;2022-09-21T03:28:13;3.75;;;1.80;;
67819;SDS011;54618;52.018;5.576;2022-09-21T03:30:40;2.55;;;1.70;;
67819;SDS011;54618;52.018;5.576;2022-09-21T03:33:06;3.28;;;1.50;;
67819;SDS011;54618;52.018;5.576;2022-09-21T03:35:32;3.15;;;1.65;;
67819;SDS011;54618;52.018;5.576;2022-09-21T03:37:58;2.65;;;1.40;;
67819;SDS011;54618;52.018;5.576;2022-09-21T03:40:24;2.58;;;1.48;;
67819;SDS011;54618;52.018;5.576;2022-09-21T03:42:53;3.47;;;1.42;;
67819;SDS011;54618;52.018;5.576;2022-09-21T03:45:19;3.55;;;1.50;;
67819;SDS011;54618;52.018;5.576;2022-09-21T03:47:50;3.17;;;1.50;;
67819;SDS011;54618;52.018;5.576;2022-09-21T03:50:22;2.85;;;1.33;;
67819;SDS011;54618;52.018;5.576;2022-09-21T03:52:49;4.32;;;1.40;;
67819;SDS011;54618;52.018;5.576;2022-09-21T03:55:15;4.45;;;1.50;;
67819;SDS011;54618;52.018;5.576;2022-09-21T03:57:41;3.22;;;1.50;;
67819;SDS011;54618;52.018;5.576;2022-09-21T04:00:08;3.25;;;1.50;;
67819;SDS011;54618;52.018;5.576;2022-09-21T04:02:35;2.90;;;1.20;;
67819;SDS011;54618;52.018;5.576;2022-09-21T04:05:02;2.40;;;1.30;;
67819;SDS011;54618;52.018;5.576;2022-09-21T04:07:32;3.08;;;1.25;;
67819;SDS011;54618;52.018;5.576;2022-09-21T04:10:02;3.03;;;1.33;;
67819;SDS011;54618;52.018;5.576;2022-09-21T04:12:29;2.90;;;1.30;;
67819;SDS011;54618;52.018;5.576;2022-09-21T04:14:55;3.22;;;1.40;;
67819;SDS011;54618;52.018;5.576;2022-09-21T04:17:20;2.35;;;1.35;;
67819;SDS011;54618;52.018;5.576;2022-09-21T04:19:46;1.83;;;1.20;;
67819;SDS011;54618;52.018;5.576;2022-09-21T04:22:12;3.13;;;1.35;;
67819;SDS011;54618;52.018;5.576;2022-09-21T04:24:38;2.50;;;1.30;;
67819;SDS011;54618;52.018;5.576;2022-09-21T04:27:05;3.72;;;1.40;;
67819;SDS011;54618;52.018;5.576;2022-09-21T04:29:34;3.08;;;1.30;;
67819;SDS011;54618;52.018;5.576;2022-09-21T04:32:01;4.00;;;1.50;;
67819;SDS011;54618;52.018;5.576;2022-09-21T04:34:26;2.90;;;1.55;;
67819;SDS011;54618;52.018;5.576;2022-09-21T04:36:52;3.00;;;1.40;;
67819;SDS011;54618;52.018;5.576;2022-09-21T04:39:18;4.00;;;1.38;;
67819;SDS011;54618;52.018;5.576;2022-09-21T04:41:44;3.08;;;1.30;;
67819;SDS011;54618;52.018;5.576;2022-09-21T04:44:10;4.07;;;1.30;;
67819;SDS011;54618;52.018;5.576;2022-09-21T04:46:35;2.13;;;1.10;;
67819;SDS011;54618;52.018;5.576;2022-09-21T04:49:02;2.58;;;1.33;;
67819;SDS011;54618;52.018;5.576;2022-09-21T04:51:28;2.35;;;1.25;;
67819;SDS011;54618;52.018;5.576;2022-09-21T04:53:53;2.40;;;1.20;;
67819;SDS011;54618;52.018;5.576;2022-09-21T04:56:20;3.65;;;1.40;;
67819;SDS011;54618;52.018;5.576;2022-09-21T04:58:45;1.77;;;1.20;;
67819;SDS011;54618;52.018;5.576;2022-09-21T05:01:11;3.30;;;1.30;;
67819;SDS011;54618;52.018;5.576;2022-09-21T05:03:36;1.95;;;1.20;;
67819;SDS011;54618;52.018;5.576;2022-09-21T05:06:02;1.83;;;1.10;;
67819;SDS011;54618;52.018;5.576;2022-09-21T05:08:28;3.30;;;1.17;;
67819;SDS011;54618;52.018;5.576;2022-09-21T05:11:13;2.30;;;1.10;;
67819;SDS011;54618;52.018;5.576;2022-09-21T05:13:40;2.47;;;1.10;;
67819;SDS011;54618;52.018;5.576;2022-09-21T05:16:06;4.28;;;1.30;;
67819;SDS011;54618;52.018;5.576;2022-09-21T05:18:33;1.95;;;1.05;;
67819;SDS011;54618;52.018;5.576;2022-09-21T05:20:59;2.53;;;1.17;;
67819;SDS011;54618;52.018;5.576;2022-09-21T05:23:26;2.88;;;1.42;;
67819;SDS011;54618;52.018;5.576;2022-09-21T05:25:54;2.45;;;1.15;;
67819;SDS011;54618;52.018;5.576;2022-09-21T05:28:20;2.00;;;1.10;;
67819;SDS011;54618;52.018;5.576;2022-09-21T05:33:39;1.58;;;1.00;;
67819;SDS011;54618;52.018;5.576;2022-09-21T05:38:51;2.35;;;1.20;;
67819;SDS011;54618;52.018;5.576;2022-09-21T05:41:17;2.53;;;1.20;;
67819;SDS011;54618;52.018;5.576;2022-09-21T05:43:43;2.65;;;1.00;;
67819;SDS011;54618;52.018;5.576;2022-09-21T05:46:12;2.00;;;1.02;;
67819;SDS011;54618;52.018;5.576;2022-09-21T05:48:46;2.25;;;1.30;;
67819;SDS011;54618;52.018;5.576;2022-09-21T05:53:49;3.80;;;1.38;;
67819;SDS011;54618;52.018;5.576;2022-09-21T05:59:22;2.10;;;1.10;;
67819;SDS011;54618;52.018;5.576;2022-09-21T06:04:58;2.35;;;1.35;;
67819;SDS011;54618;52.018;5.576;2022-09-21T06:07:26;2.35;;;1.20;;
67819;SDS011;54618;52.018;5.576;2022-09-21T06:09:51;2.25;;;1.17;;
67819;SDS011;54618;52.018;5.576;2022-09-21T06:12:17;2.03;;;1.00;;
67819;SDS011;54618;52.018;5.576;2022-09-21T06:14:43;1.65;;;0.95;;
67819;SDS011;54618;52.018;5.576;2022-09-21T06:17:08;1.80;;;1.20;;
67819;SDS011;54618;52.018;5.576;2022-09-21T06:19:34;2.30;;;1.20;;
67819;SDS011;54618;52.018;5.576;2022-09-21T06:21:59;2.45;;;1.20;;
67819;SDS011;54618;52.018;5.576;2022-09-21T06:24:25;3.03;;;1.40;;
67819;SDS011;54618;52.018;5.576;2022-09-21T06:26:50;4.55;;;1.40;;
67819;SDS011;54618;52.018;5.576;2022-09-21T06:29:16;3.10;;;1.40;;
67819;SDS011;54618;52.018;5.576;2022-09-21T06:34:14;2.42;;;1.20;;
67819;SDS011;54618;52.018;5.576;2022-09-21T06:36:39;3.20;;;1.40;;
67819;SDS011;54618;52.018;5.576;2022-09-21T06:39:05;2.55;;;1.27;;
67819;SDS011;54618;52.018;5.576;2022-09-21T06:41:30;2.20;;;1.30;;
67819;SDS011;54618;52.018;5.576;2022-09-21T06:43:56;2.90;;;1.30;;
67819;SDS011;54618;52.018;5.576;2022-09-21T06:46:21;2.60;;;1.38;;
67819;SDS011;54618;52.018;5.576;2022-09-21T06:48:48;2.70;;;1.60;;
67819;SDS011;54618;52.018;5.576;2022-09-21T06:51:14;2.78;;;1.23;;
67819;SDS011;54618;52.018;5.576;2022-09-21T06:53:39;2.40;;;1.40;;
67819;SDS011;54618;52.018;5.576;2022-09-21T06:56:06;2.40;;;1.33;;
67819;SDS011;54618;52.018;5.576;2022-09-21T06:58:33;1.70;;;1.00;;
67819;SDS011;54618;52.018;5.576;2022-09-21T07:01:04;3.80;;;1.40;;
67819;SDS011;54618;52.018;5.576;2022-09-21T07:03:31;2.03;;;1.30;;
67819;SDS011;54618;52.018;5.576;2022-09-21T07:05:56;3.75;;;1.40;;
67819;SDS011;54618;52.018;5.576;2022-09-21T07:08:22;3.05;;;1.17;;
67819;SDS011;54618;52.018;5.576;2022-09-21T07:10:48;2.45;;;1.55;;
67819;SDS011;54618;52.018;5.576;2022-09-21T07:13:13;3.03;;;1.23;;
67819;SDS011;54618;52.018;5.576;2022-09-21T07:15:41;3.22;;;1.40;;
67819;SDS011;54618;52.018;5.576;2022-09-21T07:18:11;2.72;;;1.23;;
67819;SDS011;54618;52.018;5.576;2022-09-21T07:20:37;3.00;;;1.50;;
67819;SDS011;54618;52.018;5.576;2022-09-21T07:23:08;3.53;;;1.20;;
67819;SDS011;54618;52.018;5.576;2022-09-21T07:25:41;2.58;;;1.20;;
67819;SDS011;54618;52.018;5.576;2022-09-21T07:28:11;1.98;;;1.20;;
67819;SDS011;54618;52.018;5.576;2022-09-21T07:30:37;2.10;;;1.17;;
67819;SDS011;54618;52.018;5.576;2022-09-21T07:33:04;3.88;;;1.50;;
67819;SDS011;54618;52.018;5.576;2022-09-21T07:35:30;2.97;;;1.50;;
67819;SDS011;54618;52.018;5.576;2022-09-21T07:37:56;2.60;;;1.35;;
67819;SDS011;54618;52.018;5.576;2022-09-21T07:40:23;1.80;;;1.10;;
67819;SDS011;54618;52.018;5.576;2022-09-21T07:42:49;2.50;;;1.15;;
67819;SDS011;54618;52.018;5.576;2022-09-21T07:45:14;2.35;;;1.20;;
67819;SDS011;54618;52.018;5.576;2022-09-21T07:47:40;2.78;;;1.08;;
67819;SDS011;54618;52.018;5.576;2022-09-21T07:50:06;2.50;;;1.13;;
67819;SDS011;54618;52.018;5.576;2022-09-21T07:52:32;3.33;;;1.10;;
67819;SDS011;54618;52.018;5.576;2022-09-21T07:54:59;1.63;;;1.00;;
67819;SDS011;54618;52.018;5.576;2022-09-21T07:57:24;2.67;;;1.20;;
67819;SDS011;54618;52.018;5.576;2022-09-21T08:00:09;1.95;;;1.20;;
67819;SDS011;54618;52.018;5.576;2022-09-21T08:02:35;2.85;;;1.00;;
67819;SDS011;54618;52.018;5.576;2022-09-21T08:05:02;2.92;;;1.25;;
67819;SDS011;54618;52.018;5.576;2022-09-21T08:07:27;2.63;;;1.40;;
67819;SDS011;54618;52.018;5.576;2022-09-21T08:09:53;2.08;;;1.25;;
67819;SDS011;54618;52.018;5.576;2022-09-21T08:12:18;2.58;;;1.00;;
67819;SDS011;54618;52.018;5.576;2022-09-21T08:14:45;3.17;;;1.20;;
67819;SDS011;54618;52.018;5.576;2022-09-21T08:17:14;3.00;;;1.30;;
67819;SDS011;54618;52.018;5.576;2022-09-21T08:19:40;3.42;;;1.10;;
67819;SDS011;54618;52.018;5.576;2022-09-21T08:22:05;2.28;;;1.05;;
67819;SDS011;54618;52.018;5.576;2022-09-21T08:24:32;4.35;;;1.60;;
67819;SDS011;54618;52.018;5.576;2022-09-21T08:26:59;2.00;;;1.08;;
67819;SDS011;54618;52.018;5.576;2022-09-21T08:29:25;4.88;;;1.35;;
67819;SDS011;54618;52.018;5.576;2022-09-21T08:31:51;2.40;;;1.10;;
67819;SDS011;54618;52.018;5.576;2022-09-21T08:34:19;5.05;;;1.02;;
67819;SDS011;54618;52.018;5.576;2022-09-21T08:36:45;4.22;;;1.20;;
67819;SDS011;54618;52.018;5.576;2022-09-21T08:39:11;2.83;;;1.02;;
67819;SDS011;54618;52.018;5.576;2022-09-21T08:44:16;5.22;;;1.13;;
67819;SDS011;54618;52.018;5.576;2022-09-21T08:49:52;3.50;;;0.90;;
67819;SDS011;54618;52.018;5.576;2022-09-21T08:52:22;3.53;;;1.20;;
67819;SDS011;54618;52.018;5.576;2022-09-21T08:57:43;3.50;;;1.00;;
67819;SDS011;54618;52.018;5.576;2022-09-21T09:00:16;3.03;;;1.15;;
67819;SDS011;54618;52.018;5.576;2022-09-21T09:05:40;3.13;;;1.00;;
67819;SDS011;54618;52.018;5.576;2022-09-21T09:16:23;3.15;;;0.90;;
67819;SDS011;54618;52.018;5.576;2022-09-21T09:18:59;4.00;;;0.85;;
67819;SDS011;54618;52.018;5.576;2022-09-21T09:21:39;2.40;;;1.05;;
67819;SDS011;54618;52.018;5.576;2022-09-21T09:26:46;2.22;;;0.90;;
67819;SDS011;54618;52.018;5.576;2022-09-21T09:29:27;4.40;;;1.10;;
67819;SDS011;54618;52.018;5.576;2022-09-21T09:32:01;3.53;;;0.90;;
67819;SDS011;54618;52.018;5.576;2022-09-21T09:34:30;2.78;;;0.88;;
67819;SDS011;54618;52.018;5.576;2022-09-21T09:37:22;3.17;;;0.90;;
67819;SDS011;54618;52.018;5.576;2022-09-21T09:39:53;5.03;;;1.05;;
67819;SDS011;54618;52.018;5.576;2022-09-21T09:45:14;5.57;;;1.00;;
67819;SDS011;54618;52.018;5.576;2022-09-21T09:50:37;3.20;;;0.80;;
67819;SDS011;54618;52.018;5.576;2022-09-21T09:53:08;1.65;;;0.73;;
67819;SDS011;54618;52.018;5.576;2022-09-21T09:55:47;3.28;;;0.95;;
67819;SDS011;54618;52.018;5.576;2022-09-21T10:00:50;3.33;;;0.95;;
67819;SDS011;54618;52.018;5.576;2022-09-21T10:03:18;6.32;;;1.17;;
67819;SDS011;54618;52.018;5.576;2022-09-21T10:05:45;3.03;;;1.02;;
67819;SDS011;54618;52.018;5.576;2022-09-21T10:08:28;5.60;;;0.82;;
67819;SDS011;54618;52.018;5.576;2022-09-21T10:11:08;3.42;;;0.85;;
67819;SDS011;54618;52.018;5.576;2022-09-21T10:13:36;5.30;;;0.90;;
67819;SDS011;54618;52.018;5.576;2022-09-21T10:23:57;5.18;;;0.73;;
67819;SDS011;54618;52.018;5.576;2022-09-21T10:26:23;4.20;;;1.08;;
67819;SDS011;54618;52.018;5.576;2022-09-21T10:29:16;2.17;;;0.70;;
67819;SDS011;54618;52.018;5.576;2022-09-21T10:31:55;1.55;;;0.65;;
67819;SDS011;54618;52.018;5.576;2022-09-21T10:37:36;3.70;;;0.73;;
67819;SDS011;54618;52.018;5.576;2022-09-21T10:43:00;3.85;;;0.90;;
67819;SDS011;54618;52.018;5.576;2022-09-21T10:45:27;2.47;;;0.70;;
67819;SDS011;54618;52.018;5.576;2022-09-21T10:47:56;1.85;;;0.63;;
67819;SDS011;54618;52.018;5.576;2022-09-21T10:50:43;4.60;;;1.00;;
67819;SDS011;54618;52.018;5.576;2022-09-21T11:00:51;1.13;;;0.40;;
67819;SDS011;54618;52.018;5.576;2022-09-21T11:08:55;1.65;;;0.68;;
67819;SDS011;54618;52.018;5.576;2022-09-21T11:14:03;4.53;;;0.73;;
67819;SDS011;54618;52.018;5.576;2022-09-21T11:16:44;2.30;;;0.60;;
67819;SDS011;54618;52.018;5.576;2022-09-21T11:27:43;1.15;;;0.60;;
67819;SDS011;54618;52.018;5.576;2022-09-21T11:30:14;3.88;;;0.85;;
67819;SDS011;54618;52.018;5.576;2022-09-21T11:40:49;4.38;;;0.90;;
67819;SDS011;54618;52.018;5.576;2022-09-21T11:49:26;3.78;;;0.88;;
67819;SDS011;54618;52.018;5.576;2022-09-21T11:58:15;3.78;;;1.10;;
67819;SDS011;54618;52.018;5.576;2022-09-21T12:01:40;1.63;;;0.60;;
67819;SDS011;54618;52.018;5.576;2022-09-21T12:04:30;1.73;;;0.68;;
67819;SDS011;54618;52.018;5.576;2022-09-21T12:09:46;3.58;;;0.70;;
67819;SDS011;54618;52.018;5.576;2022-09-21T12:12:55;4.90;;;0.80;;
67819;SDS011;54618;52.018;5.576;2022-09-21T12:15:44;2.72;;;0.88;;
67819;SDS011;54618;52.018;5.576;2022-09-21T12:21:38;2.63;;;0.88;;
67819;SDS011;54618;52.018;5.576;2022-09-21T12:24:12;3.20;;;0.63;;
67819;SDS011;54618;52.018;5.576;2022-09-21T12:26:46;2.45;;;0.70;;
67819;SDS011;54618;52.018;5.576;2022-09-21T12:34:24;3.60;;;0.70;;
67819;SDS011;54618;52.018;5.576;2022-09-21T12:39:47;1.48;;;0.70;;
67819;SDS011;54618;52.018;5.576;2022-09-21T12:47:57;1.38;;;0.60;;
67819;SDS011;54618;52.018;5.576;2022-09-21T12:53:26;2.55;;;0.60;;
67819;SDS011;54618;52.018;5.576;2022-09-21T12:55:55;2.45;;;0.65;;
67819;SDS011;54618;52.018;5.576;2022-09-21T12:58:33;2.92;;;0.80;;
67819;SDS011;54618;52.018;5.576;2022-09-21T13:01:24;1.55;;;0.50;;
67819;SDS011;54618;52.018;5.576;2022-09-21T13:09:33;1.88;;;0.52;;
67819;SDS011;54618;52.018;5.576;2022-09-21T13:12:08;1.98;;;0.60;;
67819;SDS011;54618;52.018;5.576;2022-09-21T13:14:44;3.42;;;0.47;;
67819;SDS011;54618;52.018;5.576;2022-09-21T13:17:31;4.82;;;0.95;;
67819;SDS011;54618;52.018;5.576;2022-09-21T13:19:58;1.35;;;0.50;;
67819;SDS011;54618;52.018;5.576;2022-09-21T13:22:31;2.80;;;0.70;;
67819;SDS011;54618;52.018;5.576;2022-09-21T13:25:03;1.23;;;0.60;;
67819;SDS011;54618;52.018;5.576;2022-09-21T13:30:29;1.63;;;0.63;;
67819;SDS011;54618;52.018;5.576;2022-09-21T13:32:56;3.30;;;0.70;;
67819;SDS011;54618;52.018;5.576;2022-09-21T13:43:45;2.00;;;0.50;;
67819;SDS011;54618;52.018;5.576;2022-09-21T13:51:34;2.00;;;0.60;;
67819;SDS011;54618;52.018;5.576;2022-09-21T13:54:18;3.13;;;0.50;;
67819;SDS011;54618;52.018;5.576;2022-09-21T13:56:51;1.60;;;0.50;;
67819;SDS011;54618;52.018;5.576;2022-09-21T13:59:24;2.13;;;0.68;;
67819;SDS011;54618;52.018;5.576;2022-09-21T14:01:51;2.00;;;0.65;;
67819;SDS011;54618;52.018;5.576;2022-09-21T14:06:45;3.17;;;0.60;;
67819;SDS011;54618;52.018;5.576;2022-09-21T14:11:54;3.90;;;0.50;;
67819;SDS011;54618;52.018;5.576;2022-09-21T14:14:31;1.40;;;0.60;;
67819;SDS011;54618;52.018;5.576;2022-09-21T14:17:01;3.10;;;0.70;;
67819;SDS011;54618;52.018;5.576;2022-09-21T14:22:40;2.33;;;0.57;;
67819;SDS011;54618;52.018;5.576;2022-09-21T14:27:12;3.60;;;0.60;;
67819;SDS011;54618;52.018;5.576;2022-09-21T14:29:52;2.90;;;0.60;;
67819;SDS011;54618;52.018;5.576;2022-09-21T14:32:25;3.20;;;0.68;;
67819;SDS011;54618;52.018;5.576;2022-09-21T14:35:14;1.48;;;0.60;;
67819;SDS011;54618;52.018;5.576;2022-09-21T14:37:50;4.50;;;0.60;;
67819;SDS011;54618;52.018;5.576;2022-09-21T14:40:24;3.33;;;0.60;;
67819;SDS011;54618;52.018;5.576;2022-09-21T14:42:52;3.97;;;0.50;;
67819;SDS011;54618;52.018;5.576;2022-09-21T14:45:23;2.05;;;0.60;;
67819;SDS011;54618;52.018;5.576;2022-09-21T14:48:12;3.60;;;0.52;;
67819;SDS011;54618;52.018;5.576;2022-09-21T14:50:53;2.17;;;0.60;;
67819;SDS011;54618;52.018;5.576;2022-09-21T14:53:30;1.92;;;0.50;;
67819;SDS011;54618;52.018;5.576;2022-09-21T14:56:20;1.63;;;0.57;;
67819;SDS011;54618;52.018;5.576;2022-09-21T15:01:39;1.95;;;0.52;;
67819;SDS011;54618;52.018;5.576;2022-09-21T15:04:28;2.28;;;0.50;;
67819;SDS011;54618;52.018;5.576;2022-09-21T15:07:15;1.83;;;0.65;;
67819;SDS011;54618;52.018;5.576;2022-09-21T15:10:13;1.35;;;0.40;;
67819;SDS011;54618;52.018;5.576;2022-09-21T15:21:42;3.15;;;0.65;;
67819;SDS011;54618;52.018;5.576;2022-09-21T15:27:10;1.60;;;0.50;;
67819;SDS011;54618;52.018;5.576;2022-09-21T15:29:41;1.73;;;0.55;;
67819;SDS011;54618;52.018;5.576;2022-09-21T15:34:59;2.85;;;0.45;;
67819;SDS011;54618;52.018;5.576;2022-09-21T15:37:26;2.05;;;0.60;;
67819;SDS011;54618;52.018;5.576;2022-09-21T15:40:03;1.85;;;0.50;;
67819;SDS011;54618;52.018;5.576;2022-09-21T15:42:31;2.35;;;0.40;;
67819;SDS011;54618;52.018;5.576;2022-09-21T15:45:15;2.33;;;0.70;;
67819;SDS011;54618;52.018;5.576;2022-09-21T15:47:42;3.53;;;0.60;;
67819;SDS011;54618;52.018;5.576;2022-09-21T15:50:15;1.60;;;0.60;;
67819;SDS011;54618;52.018;5.576;2022-09-21T15:52:45;1.23;;;0.50;;
67819;SDS011;54618;52.018;5.576;2022-09-21T15:55:17;1.27;;;0.52;;
67819;SDS011;54618;52.018;5.576;2022-09-21T15:57:48;3.17;;;0.60;;
67819;SDS011;54618;52.018;5.576;2022-09-21T16:00:24;1.08;;;0.40;;
67819;SDS011;54618;52.018;5.576;2022-09-21T16:05:30;2.85;;;0.50;;
67819;SDS011;54618;52.018;5.576;2022-09-21T16:08:06;3.40;;;0.75;;
67819;SDS011;54618;52.018;5.576;2022-09-21T16:10:42;1.92;;;0.45;;
67819;SDS011;54618;52.018;5.576;2022-09-21T16:13:17;1.35;;;0.50;;
67819;SDS011;54618;52.018;5.576;2022-09-21T16:16:09;1.55;;;0.50;;
67819;SDS011;54618;52.018;5.576;2022-09-21T16:18:40;1.35;;;0.50;;
67819;SDS011;54618;52.018;5.576;2022-09-21T16:21:14;1.05;;;0.45;;
67819;SDS011;54618;52.018;5.576;2022-09-21T16:24:19;1.52;;;0.50;;
67819;SDS011;54618;52.018;5.576;2022-09-21T16:26:57;1.52;;;0.45;;
67819;SDS011;54618;52.018;5.576;2022-09-21T16:29:26;1.23;;;0.50;;
67819;SDS011;54618;52.018;5.576;2022-09-21T16:32:28;1.27;;;0.50;;
67819;SDS011;54618;52.018;5.576;2022-09-21T16:37:40;2.08;;;0.50;;
67819;SDS011;54618;52.018;5.576;2022-09-21T16:40:07;3.22;;;0.80;;
67819;SDS011;54618;52.018;5.576;2022-09-21T16:42:34;1.70;;;0.60;;
67819;SDS011;54618;52.018;5.576;2022-09-21T16:44:59;2.22;;;0.47;;
67819;SDS011;54618;52.018;5.576;2022-09-21T16:47:40;1.05;;;0.47;;
67819;SDS011;54618;52.018;5.576;2022-09-21T16:50:10;1.80;;;0.50;;
67819;SDS011;54618;52.018;5.576;2022-09-21T16:52:36;1.55;;;0.50;;
67819;SDS011;54618;52.018;5.576;2022-09-21T16:55:02;1.85;;;0.57;;
67819;SDS011;54618;52.018;5.576;2022-09-21T16:57:28;1.27;;;0.50;;
67819;SDS011;54618;52.018;5.576;2022-09-21T16:59:54;1.27;;;0.50;;
67819;SDS011;54618;52.018;5.576;2022-09-21T17:02:20;1.77;;;0.45;;
67819;SDS011;54618;52.018;5.576;2022-09-21T17:04:45;1.65;;;0.60;;
67819;SDS011;54618;52.018;5.576;2022-09-21T17:07:12;4.13;;;0.63;;
67819;SDS011;54618;52.018;5.576;2022-09-21T17:09:39;3.80;;;0.50;;
67819;SDS011;54618;52.018;5.576;2022-09-21T17:12:09;2.08;;;0.70;;
67819;SDS011;54618;52.018;5.576;2022-09-21T17:14:36;1.85;;;0.57;;
67819;SDS011;54618;52.018;5.576;2022-09-21T17:19:42;4.35;;;0.70;;
67819;SDS011;54618;52.018;5.576;2022-09-21T17:22:10;2.20;;;0.60;;
67819;SDS011;54618;52.018;5.576;2022-09-21T17:24:41;2.97;;;0.60;;
67819;SDS011;54618;52.018;5.576;2022-09-21T17:27:11;3.08;;;0.70;;
67819;SDS011;54618;52.018;5.576;2022-09-21T17:29:37;1.77;;;0.63;;
67819;SDS011;54618;52.018;5.576;2022-09-21T17:32:11;3.45;;;0.82;;
67819;SDS011;54618;52.018;5.576;2022-09-21T17:34:38;2.00;;;0.60;;
67819;SDS011;54618;52.018;5.576;2022-09-21T17:37:05;2.50;;;0.82;;
67819;SDS011;54618;52.018;5.576;2022-09-21T17:39:31;3.15;;;0.77;;
67819;SDS011;54618;52.018;5.576;2022-09-21T17:42:05;2.50;;;0.70;;
67819;SDS011;54618;52.018;5.576;2022-09-21T17:47:50;2.53;;;0.73;;
67819;SDS011;54618;52.018;5.576;2022-09-21T17:52:47;3.40;;;0.70;;
67819;SDS011;54618;52.018;5.576;2022-09-21T17:55:32;1.83;;;0.57;;
67819;SDS011;54618;52.018;5.576;2022-09-21T18:00:54;3.25;;;0.85;;
67819;SDS011;54618;52.018;5.576;2022-09-21T18:03:29;1.67;;;0.60;;
67819;SDS011;54618;52.018;5.576;2022-09-21T18:05:56;2.08;;;0.63;;
67819;SDS011;54618;52.018;5.576;2022-09-21T18:08:26;2.33;;;0.70;;
67819;SDS011;54618;52.018;5.576;2022-09-21T18:11:02;2.10;;;0.60;;
67819;SDS011;54618;52.018;5.576;2022-09-21T18:13:42;2.17;;;0.70;;
67819;SDS011;54618;52.018;5.576;2022-09-21T18:16:24;6.22;;;0.90;;
67819;SDS011;54618;52.018;5.576;2022-09-21T18:19:15;2.42;;;0.90;;
67819;SDS011;54618;52.018;5.576;2022-09-21T18:22:02;1.52;;;0.65;;
67819;SDS011;54618;52.018;5.576;2022-09-21T18:24:55;2.58;;;0.82;;
67819;SDS011;54618;52.018;5.576;2022-09-21T18:27:21;1.95;;;0.73;;
67819;SDS011;54618;52.018;5.576;2022-09-21T18:29:48;2.35;;;0.57;;
67819;SDS011;54618;52.018;5.576;2022-09-21T18:40:35;3.80;;;0.88;;
67819;SDS011;54618;52.018;5.576;2022-09-21T18:43:22;2.63;;;0.80;;
67819;SDS011;54618;52.018;5.576;2022-09-21T18:46:03;2.53;;;0.70;;
67819;SDS011;54618;52.018;5.576;2022-09-21T18:51:45;2.70;;;0.80;;
67819;SDS011;54618;52.018;5.576;2022-09-21T18:54:21;3.15;;;0.77;;
67819;SDS011;54618;52.018;5.576;2022-09-21T18:56:51;2.35;;;0.82;;
67819;SDS011;54618;52.018;5.576;2022-09-21T18:59:17;4.07;;;0.90;;
67819;SDS011;54618;52.018;5.576;2022-09-21T19:01:43;2.40;;;0.90;;
67819;SDS011;54618;52.018;5.576;2022-09-21T19:04:10;2.28;;;0.80;;
67819;SDS011;54618;52.018;5.576;2022-09-21T19:20:46;3.90;;;1.00;;
67819;SDS011;54618;52.018;5.576;2022-09-21T19:29:11;2.75;;;0.93;;
67819;SDS011;54618;52.018;5.576;2022-09-21T19:31:54;3.60;;;1.00;;